Aviation Digital Data Service (ADDS)

Output produced by METARs form (1114 UTC 24 April 2017)
found at http://www.aviationweather.gov/adds/metars/
 
MKJP 241115Z 2412/2512 35004KT 9999 FEW022 
     BECMG 2414/2416 12010KT 
     PROB30 
     TEMPO 2418/2424 SHRA BKN020 
     BECMG 2501/2503 35004KT
       
MKJS 241115Z 2412/2512 16003KT 9999 FEW022 
     BECMG 2414/2416 05011KT 
     BECMG 2500/2502 14003KT